Home > Products > Valid Products > TAF

000
FTUS45 KMSO 032320
TAFBTM
TAF
KBTM 032320Z 0400/0424 VRB06KT P6SM FEW100
     FM042000 19009KT P6SM SCT150=



000
FTUS45 KMSO 032320
TAFGPI
TAF
KGPI 032320Z 0400/0424 16008KT P6SM FEW100
     FM040300 VRB03KT P6SM SKC
     FM041900 16006KT P6SM SCT120=



000
FTUS45 KMSO 032320
TAFSMN
TAF
KSMN 032320Z 0400/0424 VRB05KT P6SM SKC
      AMD LTD TO CLD VIS AND WIND=



000
FTUS45 KMSO 032320
TAFMSO
TAF
KMSO 032320Z 0400/0424 VRB06KT P6SM SKC=



000
FTUS45 KMSO 031722
TAFBTM
TAF
KBTM 031722Z 0318/0418 VRB03KT P6SM SKC
     FM032000 17009KT P6SM FEW100=



000
FTUS45 KMSO 031722
TAFMSO
TAF
KMSO 031722Z 0318/0418 VRB06KT P6SM SKC=



000
FTUS45 KMSO 031722
TAFSMN
TAF
KSMN 031722Z 0318/0418 00000KT P6SM SKC
     FM032000 24006KT P6SM SKC
      AMD LTD TO CLD VIS AND WIND=



000
FTUS45 KMSO 031722
TAFBTM
TAF
KBTM 031722Z 0318/0418 VRB03KT P6SM SKC
     FM032000 17009KT P6SM FEW100=



000
FTUS45 KMSO 031722
TAFGPI
TAF
KGPI 031722Z 0318/0418 VRB04KT P6SM SKC
     FM032000 16008KT P6SM FEW100=



000
FTUS45 KMSO 031722
TAFGPI
TAF
KGPI 031722Z 0318/0418 VRB04KT P6SM SKC
     FM032000 16008KT P6SM FEW100=



000
FTUS45 KMSO 031722
TAFSMN
TAF
KSMN 031722Z 0318/0418 00000KT P6SM SKC
     FM032000 24006KT P6SM SKC
      AMD LTD TO CLD VIS AND WIND=



000
FTUS45 KMSO 031722
TAFMSO
TAF
KMSO 031722Z 0318/0418 VRB06KT P6SM SKC=



000
FTUS45 KMSO 031120
TAFMSO
TAF
KMSO 031120Z 0312/0412 VRB06KT P6SM SKC=



000
FTUS45 KMSO 031120
TAFSMN
TAF
KSMN 031120Z 0312/0412 00000KT P6SM SKC
     FM032000 24006KT P6SM SKC
      AMD LTD TO CLD VIS AND WIND=



000
FTUS45 KMSO 031120
TAFGPI
TAF
KGPI 031120Z 0312/0412 VRB04KT P6SM SKC
     FM032000 16008KT P6SM FEW100=



000
FTUS45 KMSO 031120
TAFBTM
TAF
KBTM 031120Z 0312/0412 VRB03KT P6SM SKC
     FM032000 17009KT P6SM FEW100=



000
FTUS45 KMSO 030520
TAFBTM
TAF
KBTM 030520Z 0306/0406 14005KT P6SM SKC
     FM032000 17009KT P6SM SKC=



000
FTUS45 KMSO 030520
TAFSMN
TAF
KSMN 030520Z 0306/0406 00000KT P6SM SKC
     FM032000 24006KT P6SM SKC
      AMD LTD TO CLD VIS AND WIND=



000
FTUS45 KMSO 030520
TAFSMN
TAF
KSMN 030520Z 0306/0406 00000KT P6SM SKC
     FM032000 24006KT P6SM SKC
      AMD LTD TO CLD VIS AND WIND=



000
FTUS45 KMSO 030520
TAFGPI
TAF
KGPI 030520Z 0306/0406 VRB04KT P6SM SKC
     FM032000 15007KT P6SM SKC=



000
FTUS45 KMSO 030520
TAFMSO
TAF
KMSO 030520Z 0306/0406 VRB04KT P6SM SKC=



000
FTUS45 KMSO 030520
TAFBTM
TAF
KBTM 030520Z 0306/0406 14005KT P6SM SKC
     FM032000 17009KT P6SM SKC=



000
FTUS45 KMSO 030520
TAFGPI
TAF
KGPI 030520Z 0306/0406 VRB04KT P6SM SKC
     FM032000 15007KT P6SM SKC=



000
FTUS45 KMSO 030520
TAFMSO
TAF
KMSO 030520Z 0306/0406 VRB04KT P6SM SKC=



000
FTUS45 KMSO 022329
TAFGPI
TAF
KGPI 022329Z 0300/0324 VRB04KT P6SM SKC
     FM032000 15007KT P6SM SKC=



000
FTUS45 KMSO 022329
TAFMSO
TAF
KMSO 022329Z 0300/0324 35010KT P6SM FEW100
     FM030600 VRB04KT P6SM SKC=



000
FTUS45 KMSO 022329
TAFBTM
TAF
KBTM 022329Z 0300/0324 VRB04KT P6SM SKC
     FM030400 15006KT P6SM SKC=



000
FTUS45 KMSO 022329
TAFSMN
TAF
KSMN 022329Z 0300/0324 VRB04KT P6SM SKC
     FM032000 36006KT P6SM SCT150
      AMD LTD TO CLD VIS AND WIND=



000
FTUS45 KMSO 022329
TAFMSO
TAF
KMSO 022329Z 0300/0324 35010KT P6SM FEW100
     FM030600 VRB04KT P6SM SKC=



000
FTUS45 KMSO 022329
TAFGPI
TAF
KGPI 022329Z 0300/0324 VRB04KT P6SM SKC
     FM032000 15007KT P6SM SKC=



000
FTUS45 KMSO 022329
TAFSMN
TAF
KSMN 022329Z 0300/0324 VRB04KT P6SM SKC
     FM032000 36006KT P6SM SCT150
      AMD LTD TO CLD VIS AND WIND=



000
FTUS45 KMSO 022329
TAFBTM
TAF
KBTM 022329Z 0300/0324 VRB04KT P6SM SKC
     FM030400 15006KT P6SM SKC=



000
FTUS45 KMSO 021720
TAFMSO
TAF
KMSO 021720Z 0218/0318 VRB03KT P6SM SKC
     FM030000 35010KT P6SM FEW250=



000
FTUS45 KMSO 021720
TAFSMN
TAF
KSMN 021720Z 0218/0318 VRB04KT P6SM SKC
      AMD LTD TO CLD VIS AND WIND=



000
FTUS45 KMSO 021720
TAFBTM
TAF
KBTM 021720Z 0218/0318 VRB03KT P6SM SKC
     FM022200 33008KT P6SM FEW250=



000
FTUS45 KMSO 021720
TAFGPI
TAF
KGPI 021720Z 0218/0318 VRB03KT P6SM SKC
     FM022000 15007KT P6SM SKC=



000
FTUS45 KMSO 021120
TAFMSO
TAF
KMSO 021120Z 0212/0312 VRB03KT P6SM FEW100
     FM030000 35010KT P6SM FEW250=



000
FTUS45 KMSO 021120
TAFBTM
TAF
KBTM 021120Z 0212/0312 VRB03KT P6SM FEW100
     FM022200 33008KT P6SM FEW250=



000
FTUS45 KMSO 021120
TAFSMN
TAF
KSMN 021120Z 0212/0312 VRB04KT P6SM FEW100
      AMD LTD TO CLD VIS AND WIND=



000
FTUS45 KMSO 021120
TAFGPI
TAF
KGPI 021120Z 0212/0312 VRB03KT P6SM FEW100
     FM022000 15007KT P6SM SKC=



000
FTUS45 KMSO 020520
TAFGPI
TAF
KGPI 020520Z 0206/0306 VRB04KT P6SM FEW100=



000
FTUS45 KMSO 020520
TAFMSO
TAF
KMSO 020520Z 0206/0306 VRB04KT P6SM SKC
     FM030000 35010KT P6SM SKC=



000
FTUS45 KMSO 020520
TAFBTM
TAF
KBTM 020520Z 0206/0306 15006KT P6SM FEW100
     FM021800 36007KT P6SM FEW250=



000
FTUS45 KMSO 020520
TAFSMN
TAF
KSMN 020520Z 0206/0306 VRB04KT P6SM FEW100
      AMD LTD TO CLD VIS AND WIND=



000
FTUS45 KMSO 020520
TAFGPI
TAF
KGPI 020520Z 0206/0306 VRB04KT P6SM FEW100=



000
FTUS45 KMSO 020520
TAFBTM
TAF
KBTM 020520Z 0206/0306 15006KT P6SM FEW100
     FM021800 36007KT P6SM FEW250=



000
FTUS45 KMSO 020520
TAFSMN
TAF
KSMN 020520Z 0206/0306 VRB04KT P6SM FEW100
      AMD LTD TO CLD VIS AND WIND=



000
FTUS45 KMSO 020520
TAFMSO
TAF
KMSO 020520Z 0206/0306 VRB04KT P6SM SKC
     FM030000 35010KT P6SM SKC=



000
FTUS45 KMSO 020103 AAA
TAFMSO
TAF AMD
KMSO 020103Z 0201/0224 01011KT P6SM SKC
     FM020400 VRB04KT P6SM SKC=



000
FTUS45 KMSO 020103 AAA
TAFMSO
TAF AMD
KMSO 020103Z 0201/0224 01011KT P6SM SKC
     FM020400 VRB04KT P6SM SKC=



000
FTUS45 KMSO 012331
TAFBTM
TAF
KBTM 012331Z 0200/0224 15009KT P6SM FEW100
     FM021800 36007KT P6SM SKC=



000
FTUS45 KMSO 012331
TAFGPI
TAF
KGPI 012331Z 0200/0224 VRB06KT P6SM SKC=



000
FTUS45 KMSO 012331
TAFSMN
TAF
KSMN 012331Z 0200/0224 36006KT P6SM FEW150
      AMD LTD TO CLD VIS AND WIND=



000
FTUS45 KMSO 012331
TAFMSO
TAF
KMSO 012331Z 0200/0224 VRB06KT P6SM SKC=



000
FTUS45 KMSO 012205 AAA
TAFMSO
TAF AMD
KMSO 012205Z 0122/0218 28009KT P6SM SKC
     FM020200 VRB04KT P6SM SKC=



000
FTUS45 KMSO 012205 AAA
TAFBTM
TAF AMD
KBTM 012205Z 0122/0218 14012G25KT P6SM FEW100
     FM020100 22007KT P6SM SKC=



000
FTUS45 KMSO 011722
TAFGPI
TAF
KGPI 011722Z 0118/0218 30008KT P6SM SCT150=



000
FTUS45 KMSO 011722
TAFSMN
TAF
KSMN 011722Z 0118/0218 36008KT P6SM SCT150
      AMD LTD TO CLD VIS AND WIND=



000
FTUS45 KMSO 011722
TAFBTM
TAF
KBTM 011722Z 0118/0218 12012G25KT P6SM FEW100
     FM020100 22007KT P6SM SKC=



000
FTUS45 KMSO 011722
TAFMSO
TAF
KMSO 011722Z 0118/0218 12012G20KT P6SM SCT070
     FM020200 VRB04KT P6SM SKC=



000
FTUS45 KMSO 011622 AAA
TAFBTM
TAF AMD
KBTM 011622Z 0116/0212 12012G25KT P6SM FEW100
     FM020100 22007KT P6SM SKC=



000
FTUS45 KMSO 011622 AAA
TAFBTM
TAF AMD
KBTM 011622Z 0116/0212 12012G25KT P6SM FEW100
     FM020100 22007KT P6SM SKC=



000
FTUS45 KMSO 011120
TAFGPI
TAF
KGPI 011120Z 0112/0212 30008KT P6SM SCT150=



000
FTUS45 KMSO 011120
TAFSMN
TAF
KSMN 011120Z 0112/0212 VRB04KT P6SM SCT080
     FM011800 36006KT P6SM SCT150
      AMD LTD TO CLD VIS AND WIND=



000
FTUS45 KMSO 011120
TAFBTM
TAF
KBTM 011120Z 0112/0212 15007KT P6SM FEW100
     FM011900 22009KT P6SM SKC=



000
FTUS45 KMSO 011120
TAFMSO
TAF
KMSO 011120Z 0112/0212 VRB04KT P6SM SCT070
     FM011800 VRB04KT P6SM SKC=



000
FTUS45 KMSO 011120
TAFGPI
TAF
KGPI 011120Z 0112/0212 30008KT P6SM SCT150=



000
FTUS45 KMSO 011120
TAFBTM
TAF
KBTM 011120Z 0112/0212 15007KT P6SM FEW100
     FM011900 22009KT P6SM SKC=



000
FTUS45 KMSO 011120
TAFMSO
TAF
KMSO 011120Z 0112/0212 VRB04KT P6SM SCT070
     FM011800 VRB04KT P6SM SKC=



000
FTUS45 KMSO 010520
TAFGPI
TAF
KGPI 010520Z 0106/0206 36007KT P6SM SCT120
     FM011500 02008KT P6SM SCT150=



000
FTUS45 KMSO 010520
TAFBTM
TAF
KBTM 010520Z 0106/0206 09009KT P6SM BKN060
     FM011000 15007KT P6SM SCT100
     FM011900 22009KT P6SM SKC=



000
FTUS45 KMSO 010520
TAFMSO
TAF
KMSO 010520Z 0106/0206 VRB04KT P6SM BKN120
     FM011800 VRB04KT P6SM SKC=



000
FTUS45 KMSO 010520
TAFSMN
TAF
KSMN 010520Z 0106/0206 VRB04KT P6SM SCT080
     FM011800 36006KT P6SM SCT150
      AMD LTD TO CLD VIS AND WIND=



    US Dept of Commerce
    National Oceanic and Atmospheric Administration
    National Weather Service
    1325 East West Highway
    Silver Spring, MD 20910
    Page Author: NWS Internet Services Team
Disclaimer
Information Quality
Credits
Glossary
Privacy Policy
Freedom of Information Act (FOIA)
About Us
Career Opportunities